sensor_id;sensor_type;location;lat;lon;timestamp;P1;durP1;ratioP1;P2;durP2;ratioP2
43124;SDS011;49182;50.788;7.318;2022-12-05T00:01:46;26.65;;;12.30;;
43124;SDS011;49182;50.788;7.318;2022-12-05T00:04:13;25.02;;;12.60;;
43124;SDS011;49182;50.788;7.318;2022-12-05T00:06:40;28.70;;;12.63;;
43124;SDS011;49182;50.788;7.318;2022-12-05T00:09:09;27.20;;;12.93;;
43124;SDS011;49182;50.788;7.318;2022-12-05T00:11:37;26.27;;;12.77;;
43124;SDS011;49182;50.788;7.318;2022-12-05T00:14:05;27.38;;;12.73;;
43124;SDS011;49182;50.788;7.318;2022-12-05T00:16:34;29.10;;;13.68;;
43124;SDS011;49182;50.788;7.318;2022-12-05T00:19:05;26.77;;;12.75;;
43124;SDS011;49182;50.788;7.318;2022-12-05T00:21:33;26.08;;;12.27;;
43124;SDS011;49182;50.788;7.318;2022-12-05T00:24:02;26.42;;;12.27;;
43124;SDS011;49182;50.788;7.318;2022-12-05T00:26:30;26.30;;;12.40;;
43124;SDS011;49182;50.788;7.318;2022-12-05T00:28:57;26.05;;;11.95;;
43124;SDS011;49182;50.788;7.318;2022-12-05T00:31:25;31.42;;;12.90;;
43124;SDS011;49182;50.788;7.318;2022-12-05T00:33:53;28.92;;;13.00;;
43124;SDS011;49182;50.788;7.318;2022-12-05T00:36:23;25.42;;;11.95;;
43124;SDS011;49182;50.788;7.318;2022-12-05T00:38:51;25.92;;;12.02;;
43124;SDS011;49182;50.788;7.318;2022-12-05T00:41:19;22.60;;;12.15;;
43124;SDS011;49182;50.788;7.318;2022-12-05T00:43:49;27.27;;;13.10;;
43124;SDS011;49182;50.788;7.318;2022-12-05T00:46:17;27.55;;;12.85;;
43124;SDS011;49182;50.788;7.318;2022-12-05T00:48:45;29.80;;;12.07;;
43124;SDS011;49182;50.788;7.318;2022-12-05T00:51:13;23.50;;;11.15;;
43124;SDS011;49182;50.788;7.318;2022-12-05T00:53:43;23.98;;;11.52;;
43124;SDS011;49182;50.788;7.318;2022-12-05T00:56:11;26.80;;;12.10;;
43124;SDS011;49182;50.788;7.318;2022-12-05T00:58:39;24.70;;;11.57;;
43124;SDS011;49182;50.788;7.318;2022-12-05T01:01:06;22.38;;;11.50;;
43124;SDS011;49182;50.788;7.318;2022-12-05T01:03:34;25.92;;;12.65;;
43124;SDS011;49182;50.788;7.318;2022-12-05T01:06:01;28.60;;;13.02;;
43124;SDS011;49182;50.788;7.318;2022-12-05T01:08:28;25.25;;;12.45;;
43124;SDS011;49182;50.788;7.318;2022-12-05T01:10:57;27.73;;;13.38;;
43124;SDS011;49182;50.788;7.318;2022-12-05T01:13:24;30.20;;;13.85;;
43124;SDS011;49182;50.788;7.318;2022-12-05T01:15:52;26.85;;;12.65;;
43124;SDS011;49182;50.788;7.318;2022-12-05T01:18:19;26.00;;;12.50;;
43124;SDS011;49182;50.788;7.318;2022-12-05T01:20:46;29.27;;;13.23;;
43124;SDS011;49182;50.788;7.318;2022-12-05T01:23:13;25.65;;;11.32;;
43124;SDS011;49182;50.788;7.318;2022-12-05T01:25:41;28.70;;;13.75;;
43124;SDS011;49182;50.788;7.318;2022-12-05T01:28:11;25.02;;;12.48;;
43124;SDS011;49182;50.788;7.318;2022-12-05T01:30:37;24.45;;;11.85;;
43124;SDS011;49182;50.788;7.318;2022-12-05T01:33:05;23.92;;;12.27;;
43124;SDS011;49182;50.788;7.318;2022-12-05T01:35:32;31.77;;;12.85;;
43124;SDS011;49182;50.788;7.318;2022-12-05T01:37:59;25.00;;;12.40;;
43124;SDS011;49182;50.788;7.318;2022-12-05T01:40:26;25.70;;;12.57;;
43124;SDS011;49182;50.788;7.318;2022-12-05T01:42:54;25.02;;;11.80;;
43124;SDS011;49182;50.788;7.318;2022-12-05T01:45:23;22.60;;;11.20;;
43124;SDS011;49182;50.788;7.318;2022-12-05T01:47:58;25.67;;;11.20;;
43124;SDS011;49182;50.788;7.318;2022-12-05T01:50:27;24.25;;;11.93;;
43124;SDS011;49182;50.788;7.318;2022-12-05T01:52:53;22.35;;;10.77;;
43124;SDS011;49182;50.788;7.318;2022-12-05T01:55:20;22.20;;;10.68;;
43124;SDS011;49182;50.788;7.318;2022-12-05T01:57:47;23.42;;;11.00;;
43124;SDS011;49182;50.788;7.318;2022-12-05T02:00:15;23.25;;;11.20;;
43124;SDS011;49182;50.788;7.318;2022-12-05T02:02:47;20.63;;;10.68;;
43124;SDS011;49182;50.788;7.318;2022-12-05T02:05:18;24.85;;;11.48;;
43124;SDS011;49182;50.788;7.318;2022-12-05T02:07:47;26.00;;;10.48;;
43124;SDS011;49182;50.788;7.318;2022-12-05T02:10:15;22.88;;;10.13;;
43124;SDS011;49182;50.788;7.318;2022-12-05T02:12:41;20.70;;;11.07;;
43124;SDS011;49182;50.788;7.318;2022-12-05T02:18:13;22.10;;;9.75;;
43124;SDS011;49182;50.788;7.318;2022-12-05T02:20:54;28.70;;;11.70;;
43124;SDS011;49182;50.788;7.318;2022-12-05T02:23:38;21.20;;;9.77;;
43124;SDS011;49182;50.788;7.318;2022-12-05T02:26:32;22.05;;;10.10;;
43124;SDS011;49182;50.788;7.318;2022-12-05T02:29:22;22.17;;;10.35;;
43124;SDS011;49182;50.788;7.318;2022-12-05T02:34:58;23.52;;;10.75;;
43124;SDS011;49182;50.788;7.318;2022-12-05T02:37:37;23.77;;;10.90;;
43124;SDS011;49182;50.788;7.318;2022-12-05T02:40:09;22.70;;;10.73;;
43124;SDS011;49182;50.788;7.318;2022-12-05T02:42:42;18.90;;;8.50;;
43124;SDS011;49182;50.788;7.318;2022-12-05T02:45:16;19.55;;;10.00;;
43124;SDS011;49182;50.788;7.318;2022-12-05T02:47:45;24.63;;;10.52;;
43124;SDS011;49182;50.788;7.318;2022-12-05T02:50:21;24.60;;;11.32;;
43124;SDS011;49182;50.788;7.318;2022-12-05T02:52:50;22.38;;;10.32;;
43124;SDS011;49182;50.788;7.318;2022-12-05T02:55:19;23.67;;;10.55;;
43124;SDS011;49182;50.788;7.318;2022-12-05T02:57:49;21.80;;;10.10;;
43124;SDS011;49182;50.788;7.318;2022-12-05T03:00:20;21.70;;;10.13;;
43124;SDS011;49182;50.788;7.318;2022-12-05T03:02:47;24.77;;;11.10;;
43124;SDS011;49182;50.788;7.318;2022-12-05T03:05:21;22.40;;;10.93;;
43124;SDS011;49182;50.788;7.318;2022-12-05T03:07:56;21.83;;;10.63;;
43124;SDS011;49182;50.788;7.318;2022-12-05T03:10:27;23.63;;;10.38;;
43124;SDS011;49182;50.788;7.318;2022-12-05T03:12:59;20.85;;;9.45;;
43124;SDS011;49182;50.788;7.318;2022-12-05T03:15:30;21.88;;;9.77;;
43124;SDS011;49182;50.788;7.318;2022-12-05T03:18:01;19.83;;;9.75;;
43124;SDS011;49182;50.788;7.318;2022-12-05T03:20:35;22.50;;;10.25;;
43124;SDS011;49182;50.788;7.318;2022-12-05T03:23:08;23.10;;;10.55;;
43124;SDS011;49182;50.788;7.318;2022-12-05T03:25:41;21.13;;;9.85;;
43124;SDS011;49182;50.788;7.318;2022-12-05T03:28:16;18.60;;;8.85;;
43124;SDS011;49182;50.788;7.318;2022-12-05T03:30:48;22.58;;;10.20;;
43124;SDS011;49182;50.788;7.318;2022-12-05T03:33:19;20.75;;;10.00;;
43124;SDS011;49182;50.788;7.318;2022-12-05T03:35:51;19.35;;;8.90;;
43124;SDS011;49182;50.788;7.318;2022-12-05T03:38:26;18.08;;;8.98;;
43124;SDS011;49182;50.788;7.318;2022-12-05T03:41:00;18.63;;;9.20;;
43124;SDS011;49182;50.788;7.318;2022-12-05T03:43:33;20.30;;;9.88;;
43124;SDS011;49182;50.788;7.318;2022-12-05T03:48:35;20.27;;;9.80;;
43124;SDS011;49182;50.788;7.318;2022-12-05T03:51:06;23.10;;;9.27;;
43124;SDS011;49182;50.788;7.318;2022-12-05T03:53:36;19.25;;;9.05;;
43124;SDS011;49182;50.788;7.318;2022-12-05T03:56:11;20.48;;;10.63;;
43124;SDS011;49182;50.788;7.318;2022-12-05T03:58:43;23.52;;;10.20;;
43124;SDS011;49182;50.788;7.318;2022-12-05T04:01:15;24.35;;;10.68;;
43124;SDS011;49182;50.788;7.318;2022-12-05T04:03:47;20.33;;;10.23;;
43124;SDS011;49182;50.788;7.318;2022-12-05T04:06:19;21.42;;;10.40;;
43124;SDS011;49182;50.788;7.318;2022-12-05T04:08:53;20.70;;;10.63;;
43124;SDS011;49182;50.788;7.318;2022-12-05T04:11:23;18.92;;;9.10;;
43124;SDS011;49182;50.788;7.318;2022-12-05T04:13:53;19.80;;;9.40;;
43124;SDS011;49182;50.788;7.318;2022-12-05T04:16:24;23.45;;;10.88;;
43124;SDS011;49182;50.788;7.318;2022-12-05T04:18:56;19.05;;;9.75;;
43124;SDS011;49182;50.788;7.318;2022-12-05T04:21:30;21.45;;;9.40;;
43124;SDS011;49182;50.788;7.318;2022-12-05T04:24:03;18.40;;;9.30;;
43124;SDS011;49182;50.788;7.318;2022-12-05T04:26:31;22.05;;;10.75;;
43124;SDS011;49182;50.788;7.318;2022-12-05T04:29:01;21.88;;;9.75;;
43124;SDS011;49182;50.788;7.318;2022-12-05T04:31:32;19.17;;;9.57;;
43124;SDS011;49182;50.788;7.318;2022-12-05T04:34:05;19.30;;;9.23;;
43124;SDS011;49182;50.788;7.318;2022-12-05T04:36:36;19.45;;;9.30;;
43124;SDS011;49182;50.788;7.318;2022-12-05T04:39:09;25.80;;;10.93;;
43124;SDS011;49182;50.788;7.318;2022-12-05T04:41:44;19.92;;;10.27;;
43124;SDS011;49182;50.788;7.318;2022-12-05T04:44:16;21.23;;;10.48;;
43124;SDS011;49182;50.788;7.318;2022-12-05T04:46:45;22.33;;;10.05;;
43124;SDS011;49182;50.788;7.318;2022-12-05T04:49:18;24.05;;;9.63;;
43124;SDS011;49182;50.788;7.318;2022-12-05T04:51:51;19.75;;;9.27;;
43124;SDS011;49182;50.788;7.318;2022-12-05T04:54:20;20.08;;;9.60;;
43124;SDS011;49182;50.788;7.318;2022-12-05T04:56:54;20.70;;;9.25;;
43124;SDS011;49182;50.788;7.318;2022-12-05T04:59:28;19.90;;;9.38;;
43124;SDS011;49182;50.788;7.318;2022-12-05T05:01:56;19.20;;;9.55;;
43124;SDS011;49182;50.788;7.318;2022-12-05T05:04:28;17.73;;;8.95;;
43124;SDS011;49182;50.788;7.318;2022-12-05T05:07:08;19.70;;;9.77;;
43124;SDS011;49182;50.788;7.318;2022-12-05T05:09:36;18.58;;;8.63;;
43124;SDS011;49182;50.788;7.318;2022-12-05T05:12:05;19.17;;;9.18;;
43124;SDS011;49182;50.788;7.318;2022-12-05T05:14:32;18.15;;;8.57;;
43124;SDS011;49182;50.788;7.318;2022-12-05T05:16:59;18.95;;;9.50;;
43124;SDS011;49182;50.788;7.318;2022-12-05T05:19:26;16.73;;;8.32;;
43124;SDS011;49182;50.788;7.318;2022-12-05T05:21:53;18.48;;;8.60;;
43124;SDS011;49182;50.788;7.318;2022-12-05T05:24:23;19.20;;;8.75;;
43124;SDS011;49182;50.788;7.318;2022-12-05T05:26:50;18.85;;;9.50;;
43124;SDS011;49182;50.788;7.318;2022-12-05T05:29:22;16.58;;;8.20;;
43124;SDS011;49182;50.788;7.318;2022-12-05T05:31:49;17.10;;;8.13;;
43124;SDS011;49182;50.788;7.318;2022-12-05T05:34:16;17.10;;;8.82;;
43124;SDS011;49182;50.788;7.318;2022-12-05T05:36:42;17.40;;;8.88;;
43124;SDS011;49182;50.788;7.318;2022-12-05T05:39:10;18.60;;;8.38;;
43124;SDS011;49182;50.788;7.318;2022-12-05T05:41:41;18.17;;;8.77;;
43124;SDS011;49182;50.788;7.318;2022-12-05T05:44:07;16.77;;;8.20;;
43124;SDS011;49182;50.788;7.318;2022-12-05T05:46:34;21.85;;;10.35;;
43124;SDS011;49182;50.788;7.318;2022-12-05T05:49:02;39.08;;;17.80;;
43124;SDS011;49182;50.788;7.318;2022-12-05T05:51:29;28.42;;;12.65;;
43124;SDS011;49182;50.788;7.318;2022-12-05T05:53:57;21.48;;;8.88;;
43124;SDS011;49182;50.788;7.318;2022-12-05T05:56:24;18.98;;;9.38;;
43124;SDS011;49182;50.788;7.318;2022-12-05T05:58:55;18.70;;;9.10;;
43124;SDS011;49182;50.788;7.318;2022-12-05T06:01:23;23.60;;;10.35;;
43124;SDS011;49182;50.788;7.318;2022-12-05T06:03:49;18.73;;;9.40;;
43124;SDS011;49182;50.788;7.318;2022-12-05T06:06:17;18.60;;;8.38;;
43124;SDS011;49182;50.788;7.318;2022-12-05T06:08:44;19.02;;;9.90;;
43124;SDS011;49182;50.788;7.318;2022-12-05T06:11:12;20.63;;;10.07;;
43124;SDS011;49182;50.788;7.318;2022-12-05T06:13:50;20.00;;;8.85;;
43124;SDS011;49182;50.788;7.318;2022-12-05T06:16:18;17.08;;;8.55;;
43124;SDS011;49182;50.788;7.318;2022-12-05T06:18:45;18.73;;;9.13;;
43124;SDS011;49182;50.788;7.318;2022-12-05T06:21:12;20.65;;;9.27;;
43124;SDS011;49182;50.788;7.318;2022-12-05T06:23:42;18.25;;;9.50;;
43124;SDS011;49182;50.788;7.318;2022-12-05T06:26:09;18.42;;;8.80;;
43124;SDS011;49182;50.788;7.318;2022-12-05T06:28:37;23.67;;;10.52;;
43124;SDS011;49182;50.788;7.318;2022-12-05T06:31:05;19.98;;;8.98;;
43124;SDS011;49182;50.788;7.318;2022-12-05T06:33:34;20.42;;;9.02;;
43124;SDS011;49182;50.788;7.318;2022-12-05T06:36:02;21.23;;;9.95;;
43124;SDS011;49182;50.788;7.318;2022-12-05T06:38:30;19.55;;;9.38;;
43124;SDS011;49182;50.788;7.318;2022-12-05T06:40:57;16.08;;;8.43;;
43124;SDS011;49182;50.788;7.318;2022-12-05T06:43:24;18.42;;;8.90;;
43124;SDS011;49182;50.788;7.318;2022-12-05T06:45:50;16.77;;;8.35;;
43124;SDS011;49182;50.788;7.318;2022-12-05T06:48:17;15.68;;;8.38;;
43124;SDS011;49182;50.788;7.318;2022-12-05T06:50:49;17.52;;;9.23;;
43124;SDS011;49182;50.788;7.318;2022-12-05T06:53:17;19.25;;;9.30;;
43124;SDS011;49182;50.788;7.318;2022-12-05T06:55:43;18.52;;;9.00;;
43124;SDS011;49182;50.788;7.318;2022-12-05T06:58:19;21.05;;;9.15;;
43124;SDS011;49182;50.788;7.318;2022-12-05T07:00:46;17.65;;;8.90;;
43124;SDS011;49182;50.788;7.318;2022-12-05T07:03:13;16.35;;;8.45;;
43124;SDS011;49182;50.788;7.318;2022-12-05T07:05:39;18.80;;;9.02;;
43124;SDS011;49182;50.788;7.318;2022-12-05T07:08:08;20.83;;;9.23;;
43124;SDS011;49182;50.788;7.318;2022-12-05T07:10:35;21.92;;;9.82;;
43124;SDS011;49182;50.788;7.318;2022-12-05T07:13:01;18.65;;;8.98;;
43124;SDS011;49182;50.788;7.318;2022-12-05T07:15:28;20.35;;;9.07;;
43124;SDS011;49182;50.788;7.318;2022-12-05T07:17:55;16.88;;;8.55;;
43124;SDS011;49182;50.788;7.318;2022-12-05T07:20:21;23.70;;;9.15;;
43124;SDS011;49182;50.788;7.318;2022-12-05T07:22:48;20.25;;;8.65;;
43124;SDS011;49182;50.788;7.318;2022-12-05T07:25:16;21.58;;;9.38;;
43124;SDS011;49182;50.788;7.318;2022-12-05T07:27:43;19.45;;;8.88;;
43124;SDS011;49182;50.788;7.318;2022-12-05T07:30:09;16.83;;;8.75;;
43124;SDS011;49182;50.788;7.318;2022-12-05T07:32:36;16.58;;;7.88;;
43124;SDS011;49182;50.788;7.318;2022-12-05T07:35:03;19.25;;;9.35;;
43124;SDS011;49182;50.788;7.318;2022-12-05T07:37:33;18.15;;;8.57;;
43124;SDS011;49182;50.788;7.318;2022-12-05T07:40:00;17.90;;;8.73;;
43124;SDS011;49182;50.788;7.318;2022-12-05T07:42:30;20.98;;;9.50;;
43124;SDS011;49182;50.788;7.318;2022-12-05T07:44:57;17.75;;;9.43;;
43124;SDS011;49182;50.788;7.318;2022-12-05T07:47:24;18.00;;;8.82;;
43124;SDS011;49182;50.788;7.318;2022-12-05T07:49:50;18.48;;;8.75;;
43124;SDS011;49182;50.788;7.318;2022-12-05T07:52:17;15.25;;;7.90;;
43124;SDS011;49182;50.788;7.318;2022-12-05T07:54:44;19.30;;;8.73;;
43124;SDS011;49182;50.788;7.318;2022-12-05T07:57:11;16.02;;;8.30;;
43124;SDS011;49182;50.788;7.318;2022-12-05T07:59:39;14.73;;;8.05;;
43124;SDS011;49182;50.788;7.318;2022-12-05T08:02:08;15.90;;;7.50;;
43124;SDS011;49182;50.788;7.318;2022-12-05T08:04:35;14.40;;;7.20;;
43124;SDS011;49182;50.788;7.318;2022-12-05T08:07:01;18.02;;;8.77;;
43124;SDS011;49182;50.788;7.318;2022-12-05T08:09:28;18.73;;;8.75;;
43124;SDS011;49182;50.788;7.318;2022-12-05T08:11:54;18.90;;;9.80;;
43124;SDS011;49182;50.788;7.318;2022-12-05T08:14:21;30.92;;;15.35;;
43124;SDS011;49182;50.788;7.318;2022-12-05T08:16:49;28.52;;;14.55;;
43124;SDS011;49182;50.788;7.318;2022-12-05T08:19:17;46.22;;;20.42;;
43124;SDS011;49182;50.788;7.318;2022-12-05T08:21:43;24.73;;;11.32;;
43124;SDS011;49182;50.788;7.318;2022-12-05T08:24:10;20.25;;;10.13;;
43124;SDS011;49182;50.788;7.318;2022-12-05T08:26:38;12.18;;;7.68;;
43124;SDS011;49182;50.788;7.318;2022-12-05T08:29:06;19.33;;;8.60;;
43124;SDS011;49182;50.788;7.318;2022-12-05T08:31:34;15.55;;;8.55;;
43124;SDS011;49182;50.788;7.318;2022-12-05T08:34:05;18.77;;;8.32;;
43124;SDS011;49182;50.788;7.318;2022-12-05T08:36:32;31.83;;;13.40;;
43124;SDS011;49182;50.788;7.318;2022-12-05T08:39:00;20.55;;;10.43;;
43124;SDS011;49182;50.788;7.318;2022-12-05T08:41:29;20.17;;;9.52;;
43124;SDS011;49182;50.788;7.318;2022-12-05T08:43:57;20.33;;;9.05;;
43124;SDS011;49182;50.788;7.318;2022-12-05T08:46:25;16.67;;;8.85;;
43124;SDS011;49182;50.788;7.318;2022-12-05T08:48:51;18.63;;;9.73;;
43124;SDS011;49182;50.788;7.318;2022-12-05T08:51:19;20.42;;;9.77;;
43124;SDS011;49182;50.788;7.318;2022-12-05T08:53:46;18.38;;;9.68;;
43124;SDS011;49182;50.788;7.318;2022-12-05T08:56:13;18.65;;;9.43;;
43124;SDS011;49182;50.788;7.318;2022-12-05T08:58:40;17.83;;;8.68;;
43124;SDS011;49182;50.788;7.318;2022-12-05T09:01:08;19.83;;;9.25;;
43124;SDS011;49182;50.788;7.318;2022-12-05T09:03:37;22.05;;;10.20;;
43124;SDS011;49182;50.788;7.318;2022-12-05T09:06:13;17.58;;;9.77;;
43124;SDS011;49182;50.788;7.318;2022-12-05T09:08:42;16.98;;;9.18;;
43124;SDS011;49182;50.788;7.318;2022-12-05T09:11:10;18.83;;;8.82;;
43124;SDS011;49182;50.788;7.318;2022-12-05T09:13:38;21.15;;;8.98;;
43124;SDS011;49182;50.788;7.318;2022-12-05T09:16:05;19.75;;;9.20;;
43124;SDS011;49182;50.788;7.318;2022-12-05T09:18:33;17.42;;;9.50;;
43124;SDS011;49182;50.788;7.318;2022-12-05T09:21:04;17.95;;;9.15;;
43124;SDS011;49182;50.788;7.318;2022-12-05T09:23:31;20.50;;;10.05;;
43124;SDS011;49182;50.788;7.318;2022-12-05T09:25:59;19.73;;;9.45;;
43124;SDS011;49182;50.788;7.318;2022-12-05T09:28:27;17.42;;;8.70;;
43124;SDS011;49182;50.788;7.318;2022-12-05T09:30:54;18.40;;;9.30;;
43124;SDS011;49182;50.788;7.318;2022-12-05T09:33:23;18.15;;;9.00;;
43124;SDS011;49182;50.788;7.318;2022-12-05T09:35:52;25.13;;;12.90;;
43124;SDS011;49182;50.788;7.318;2022-12-05T09:38:19;22.42;;;10.50;;
43124;SDS011;49182;50.788;7.318;2022-12-05T09:40:46;19.42;;;9.45;;
43124;SDS011;49182;50.788;7.318;2022-12-05T09:43:28;16.10;;;7.65;;
43124;SDS011;49182;50.788;7.318;2022-12-05T09:46:06;18.05;;;8.50;;
43124;SDS011;49182;50.788;7.318;2022-12-05T09:48:43;16.58;;;8.23;;
43124;SDS011;49182;50.788;7.318;2022-12-05T09:51:13;15.43;;;7.70;;
43124;SDS011;49182;50.788;7.318;2022-12-05T09:53:42;17.02;;;8.80;;
43124;SDS011;49182;50.788;7.318;2022-12-05T09:56:12;14.77;;;7.47;;
43124;SDS011;49182;50.788;7.318;2022-12-05T09:58:48;14.57;;;7.80;;
43124;SDS011;49182;50.788;7.318;2022-12-05T10:01:21;15.75;;;8.40;;
43124;SDS011;49182;50.788;7.318;2022-12-05T10:06:53;13.23;;;6.75;;
43124;SDS011;49182;50.788;7.318;2022-12-05T10:09:35;10.93;;;6.25;;
43124;SDS011;49182;50.788;7.318;2022-12-05T10:12:14;12.40;;;6.18;;
43124;SDS011;49182;50.788;7.318;2022-12-05T10:17:27;13.20;;;6.60;;
43124;SDS011;49182;50.788;7.318;2022-12-05T10:19:59;15.45;;;7.78;;
43124;SDS011;49182;50.788;7.318;2022-12-05T10:22:29;15.50;;;7.85;;
43124;SDS011;49182;50.788;7.318;2022-12-05T10:25:04;16.40;;;8.68;;
43124;SDS011;49182;50.788;7.318;2022-12-05T10:27:32;13.65;;;7.82;;
43124;SDS011;49182;50.788;7.318;2022-12-05T10:30:08;14.00;;;7.53;;
43124;SDS011;49182;50.788;7.318;2022-12-05T10:32:41;13.85;;;7.85;;
43124;SDS011;49182;50.788;7.318;2022-12-05T10:35:17;14.32;;;7.05;;
43124;SDS011;49182;50.788;7.318;2022-12-05T10:37:45;15.73;;;7.85;;
43124;SDS011;49182;50.788;7.318;2022-12-05T10:40:14;12.85;;;6.80;;
43124;SDS011;49182;50.788;7.318;2022-12-05T10:42:41;17.75;;;9.57;;
43124;SDS011;49182;50.788;7.318;2022-12-05T10:45:14;13.77;;;7.90;;
43124;SDS011;49182;50.788;7.318;2022-12-05T10:47:44;15.13;;;8.02;;
43124;SDS011;49182;50.788;7.318;2022-12-05T10:50:18;17.17;;;8.48;;
43124;SDS011;49182;50.788;7.318;2022-12-05T10:52:48;14.50;;;8.20;;
43124;SDS011;49182;50.788;7.318;2022-12-05T10:55:17;16.35;;;7.90;;
43124;SDS011;49182;50.788;7.318;2022-12-05T10:57:46;15.27;;;8.05;;
43124;SDS011;49182;50.788;7.318;2022-12-05T11:00:19;16.88;;;8.73;;
43124;SDS011;49182;50.788;7.318;2022-12-05T11:02:49;15.27;;;8.65;;
43124;SDS011;49182;50.788;7.318;2022-12-05T11:05:25;14.32;;;7.72;;
43124;SDS011;49182;50.788;7.318;2022-12-05T11:07:56;14.38;;;8.13;;
43124;SDS011;49182;50.788;7.318;2022-12-05T11:10:25;15.85;;;9.10;;
43124;SDS011;49182;50.788;7.318;2022-12-05T11:12:54;15.02;;;8.73;;
43124;SDS011;49182;50.788;7.318;2022-12-05T11:15:23;15.23;;;7.80;;
43124;SDS011;49182;50.788;7.318;2022-12-05T11:17:51;14.10;;;7.68;;
43124;SDS011;49182;50.788;7.318;2022-12-05T11:23:24;15.52;;;8.40;;
43124;SDS011;49182;50.788;7.318;2022-12-05T11:25:53;15.50;;;8.35;;
43124;SDS011;49182;50.788;7.318;2022-12-05T11:28:33;13.60;;;7.97;;
43124;SDS011;49182;50.788;7.318;2022-12-05T11:31:03;13.45;;;7.80;;
43124;SDS011;49182;50.788;7.318;2022-12-05T11:33:32;16.20;;;8.98;;
43124;SDS011;49182;50.788;7.318;2022-12-05T11:36:04;19.42;;;9.95;;
43124;SDS011;49182;50.788;7.318;2022-12-05T11:38:38;21.05;;;11.38;;
43124;SDS011;49182;50.788;7.318;2022-12-05T11:41:13;23.33;;;13.73;;
43124;SDS011;49182;50.788;7.318;2022-12-05T11:47:09;15.10;;;8.65;;
43124;SDS011;49182;50.788;7.318;2022-12-05T11:49:52;20.02;;;11.15;;
43124;SDS011;49182;50.788;7.318;2022-12-05T11:52:34;15.60;;;8.27;;
43124;SDS011;49182;50.788;7.318;2022-12-05T11:55:13;15.38;;;9.15;;
43124;SDS011;49182;50.788;7.318;2022-12-05T11:57:46;17.65;;;9.82;;
43124;SDS011;49182;50.788;7.318;2022-12-05T12:00:25;16.80;;;9.90;;
43124;SDS011;49182;50.788;7.318;2022-12-05T12:03:16;16.35;;;8.88;;
43124;SDS011;49182;50.788;7.318;2022-12-05T12:06:09;20.25;;;10.00;;
43124;SDS011;49182;50.788;7.318;2022-12-05T12:08:48;16.47;;;9.37;;
43124;SDS011;49182;50.788;7.318;2022-12-05T12:11:25;16.38;;;9.40;;
43124;SDS011;49182;50.788;7.318;2022-12-05T12:13:59;16.48;;;9.38;;
43124;SDS011;49182;50.788;7.318;2022-12-05T12:16:35;15.90;;;8.93;;
43124;SDS011;49182;50.788;7.318;2022-12-05T12:19:20;17.73;;;9.98;;
43124;SDS011;49182;50.788;7.318;2022-12-05T12:22:00;15.65;;;9.45;;
43124;SDS011;49182;50.788;7.318;2022-12-05T12:24:46;15.60;;;9.02;;
43124;SDS011;49182;50.788;7.318;2022-12-05T12:27:25;18.33;;;9.05;;
43124;SDS011;49182;50.788;7.318;2022-12-05T12:30:05;17.65;;;9.90;;
43124;SDS011;49182;50.788;7.318;2022-12-05T12:32:44;18.35;;;10.48;;
43124;SDS011;49182;50.788;7.318;2022-12-05T12:35:22;18.58;;;10.23;;
43124;SDS011;49182;50.788;7.318;2022-12-05T12:37:57;20.58;;;11.13;;
43124;SDS011;49182;50.788;7.318;2022-12-05T12:40:33;17.95;;;9.55;;
43124;SDS011;49182;50.788;7.318;2022-12-05T12:43:06;15.70;;;8.27;;
43124;SDS011;49182;50.788;7.318;2022-12-05T12:46:09;16.45;;;8.60;;
43124;SDS011;49182;50.788;7.318;2022-12-05T12:48:53;17.98;;;8.57;;
43124;SDS011;49182;50.788;7.318;2022-12-05T12:51:32;17.25;;;9.15;;
43124;SDS011;49182;50.788;7.318;2022-12-05T12:54:08;17.50;;;9.98;;
43124;SDS011;49182;50.788;7.318;2022-12-05T12:57:18;16.85;;;9.05;;
43124;SDS011;49182;50.788;7.318;2022-12-05T12:59:53;20.17;;;10.95;;
43124;SDS011;49182;50.788;7.318;2022-12-05T13:02:32;18.40;;;9.75;;
43124;SDS011;49182;50.788;7.318;2022-12-05T13:05:04;17.75;;;9.20;;
43124;SDS011;49182;50.788;7.318;2022-12-05T13:07:37;19.70;;;10.40;;
43124;SDS011;49182;50.788;7.318;2022-12-05T13:10:11;16.88;;;9.68;;
43124;SDS011;49182;50.788;7.318;2022-12-05T13:12:46;15.48;;;9.60;;
43124;SDS011;49182;50.788;7.318;2022-12-05T13:15:15;15.52;;;8.98;;
43124;SDS011;49182;50.788;7.318;2022-12-05T13:17:44;14.27;;;7.97;;
43124;SDS011;49182;50.788;7.318;2022-12-05T13:20:14;14.02;;;8.20;;
43124;SDS011;49182;50.788;7.318;2022-12-05T13:22:43;15.70;;;9.45;;
43124;SDS011;49182;50.788;7.318;2022-12-05T13:25:12;14.25;;;8.48;;
43124;SDS011;49182;50.788;7.318;2022-12-05T13:27:40;15.70;;;8.77;;
43124;SDS011;49182;50.788;7.318;2022-12-05T13:30:19;14.98;;;7.85;;
43124;SDS011;49182;50.788;7.318;2022-12-05T13:32:47;21.52;;;11.25;;
43124;SDS011;49182;50.788;7.318;2022-12-05T13:35:23;22.50;;;10.88;;
43124;SDS011;49182;50.788;7.318;2022-12-05T13:37:57;15.45;;;8.07;;
43124;SDS011;49182;50.788;7.318;2022-12-05T13:40:25;12.80;;;7.85;;
43124;SDS011;49182;50.788;7.318;2022-12-05T13:43:00;18.95;;;9.82;;
43124;SDS011;49182;50.788;7.318;2022-12-05T13:45:30;17.63;;;8.85;;
43124;SDS011;49182;50.788;7.318;2022-12-05T13:48:01;16.05;;;8.55;;
43124;SDS011;49182;50.788;7.318;2022-12-05T13:50:40;19.98;;;8.57;;
43124;SDS011;49182;50.788;7.318;2022-12-05T13:53:27;14.25;;;8.00;;
43124;SDS011;49182;50.788;7.318;2022-12-05T13:55:59;14.68;;;8.45;;
43124;SDS011;49182;50.788;7.318;2022-12-05T13:58:44;16.23;;;9.70;;
43124;SDS011;49182;50.788;7.318;2022-12-05T14:04:23;15.55;;;8.07;;
43124;SDS011;49182;50.788;7.318;2022-12-05T14:10:06;14.70;;;8.45;;
43124;SDS011;49182;50.788;7.318;2022-12-05T14:12:51;15.60;;;9.07;;
43124;SDS011;49182;50.788;7.318;2022-12-05T14:15:23;16.30;;;9.52;;
43124;SDS011;49182;50.788;7.318;2022-12-05T14:17:59;16.30;;;8.95;;
43124;SDS011;49182;50.788;7.318;2022-12-05T14:20:44;18.97;;;10.37;;
43124;SDS011;49182;50.788;7.318;2022-12-05T14:23:29;23.23;;;12.68;;
43124;SDS011;49182;50.788;7.318;2022-12-05T14:26:13;16.58;;;10.57;;
43124;SDS011;49182;50.788;7.318;2022-12-05T14:28:51;16.35;;;9.93;;
43124;SDS011;49182;50.788;7.318;2022-12-05T14:31:37;19.00;;;10.38;;
43124;SDS011;49182;50.788;7.318;2022-12-05T14:34:17;18.73;;;10.00;;
43124;SDS011;49182;50.788;7.318;2022-12-05T14:36:51;18.23;;;10.50;;
43124;SDS011;49182;50.788;7.318;2022-12-05T14:39:20;18.25;;;10.95;;
43124;SDS011;49182;50.788;7.318;2022-12-05T14:41:55;13.80;;;8.73;;
43124;SDS011;49182;50.788;7.318;2022-12-05T14:44:23;15.52;;;8.60;;
43124;SDS011;49182;50.788;7.318;2022-12-05T14:46:50;14.95;;;8.57;;
43124;SDS011;49182;50.788;7.318;2022-12-05T14:49:48;18.23;;;9.25;;
43124;SDS011;49182;50.788;7.318;2022-12-05T14:52:19;16.23;;;8.93;;
43124;SDS011;49182;50.788;7.318;2022-12-05T14:54:48;14.13;;;8.38;;
43124;SDS011;49182;50.788;7.318;2022-12-05T14:57:22;15.63;;;8.52;;
43124;SDS011;49182;50.788;7.318;2022-12-05T14:59:51;14.32;;;8.68;;
43124;SDS011;49182;50.788;7.318;2022-12-05T15:02:23;14.23;;;8.80;;
43124;SDS011;49182;50.788;7.318;2022-12-05T15:04:54;18.65;;;11.45;;
43124;SDS011;49182;50.788;7.318;2022-12-05T15:07:28;17.23;;;9.40;;
43124;SDS011;49182;50.788;7.318;2022-12-05T15:10:01;14.10;;;8.80;;
43124;SDS011;49182;50.788;7.318;2022-12-05T15:12:32;14.25;;;9.68;;
43124;SDS011;49182;50.788;7.318;2022-12-05T15:15:12;15.80;;;8.80;;
43124;SDS011;49182;50.788;7.318;2022-12-05T15:17:44;13.93;;;8.13;;
43124;SDS011;49182;50.788;7.318;2022-12-05T15:20:15;14.35;;;8.70;;
43124;SDS011;49182;50.788;7.318;2022-12-05T15:22:46;14.70;;;9.23;;